sensor_id;sensor_type;location;lat;lon;timestamp;P1;durP1;ratioP1;P2;durP2;ratioP2
38725;SDS011;24474;48.906;8.808;2023-03-23T00:01:14;2.05;;;0.82;;
38725;SDS011;24474;48.906;8.808;2023-03-23T00:03:46;2.20;;;1.00;;
38725;SDS011;24474;48.906;8.808;2023-03-23T00:06:18;1.80;;;0.98;;
38725;SDS011;24474;48.906;8.808;2023-03-23T00:08:47;2.70;;;0.80;;
38725;SDS011;24474;48.906;8.808;2023-03-23T00:11:17;1.60;;;0.90;;
38725;SDS011;24474;48.906;8.808;2023-03-23T00:13:46;0.88;;;0.88;;
38725;SDS011;24474;48.906;8.808;2023-03-23T00:16:18;1.73;;;1.05;;
38725;SDS011;24474;48.906;8.808;2023-03-23T00:18:56;2.92;;;0.90;;
38725;SDS011;24474;48.906;8.808;2023-03-23T00:21:31;1.48;;;0.95;;
38725;SDS011;24474;48.906;8.808;2023-03-23T00:24:05;2.03;;;1.02;;
38725;SDS011;24474;48.906;8.808;2023-03-23T00:26:52;2.65;;;0.98;;
38725;SDS011;24474;48.906;8.808;2023-03-23T00:29:22;1.95;;;1.00;;
38725;SDS011;24474;48.906;8.808;2023-03-23T00:31:51;1.40;;;0.90;;
38725;SDS011;24474;48.906;8.808;2023-03-23T00:34:18;1.73;;;0.80;;
38725;SDS011;24474;48.906;8.808;2023-03-23T00:36:50;1.90;;;1.00;;
38725;SDS011;24474;48.906;8.808;2023-03-23T00:39:18;3.60;;;1.08;;
38725;SDS011;24474;48.906;8.808;2023-03-23T00:41:44;1.10;;;0.80;;
38725;SDS011;24474;48.906;8.808;2023-03-23T00:44:12;1.63;;;0.88;;
38725;SDS011;24474;48.906;8.808;2023-03-23T00:46:46;1.13;;;0.90;;
38725;SDS011;24474;48.906;8.808;2023-03-23T00:49:14;1.73;;;0.90;;
38725;SDS011;24474;48.906;8.808;2023-03-23T00:51:43;1.48;;;0.80;;
38725;SDS011;24474;48.906;8.808;2023-03-23T00:54:11;1.27;;;0.88;;
38725;SDS011;24474;48.906;8.808;2023-03-23T00:56:37;1.13;;;1.00;;
38725;SDS011;24474;48.906;8.808;2023-03-23T00:59:09;2.08;;;1.13;;
38725;SDS011;24474;48.906;8.808;2023-03-23T01:01:34;2.22;;;1.00;;
38725;SDS011;24474;48.906;8.808;2023-03-23T01:04:01;1.15;;;1.00;;
38725;SDS011;24474;48.906;8.808;2023-03-23T01:06:31;1.20;;;0.90;;
38725;SDS011;24474;48.906;8.808;2023-03-23T01:09:14;1.38;;;0.85;;
38725;SDS011;24474;48.906;8.808;2023-03-23T01:11:50;2.28;;;1.00;;
38725;SDS011;24474;48.906;8.808;2023-03-23T01:14:19;1.80;;;1.08;;
38725;SDS011;24474;48.906;8.808;2023-03-23T01:16:47;3.17;;;1.20;;
38725;SDS011;24474;48.906;8.808;2023-03-23T01:19:15;2.30;;;1.02;;
38725;SDS011;24474;48.906;8.808;2023-03-23T01:21:41;1.67;;;0.90;;
38725;SDS011;24474;48.906;8.808;2023-03-23T01:24:10;1.13;;;0.98;;
38725;SDS011;24474;48.906;8.808;2023-03-23T01:26:35;1.85;;;0.90;;
38725;SDS011;24474;48.906;8.808;2023-03-23T01:29:03;2.30;;;1.15;;
38725;SDS011;24474;48.906;8.808;2023-03-23T01:31:30;1.38;;;1.00;;
38725;SDS011;24474;48.906;8.808;2023-03-23T01:33:57;2.17;;;1.13;;
38725;SDS011;24474;48.906;8.808;2023-03-23T01:36:25;3.17;;;1.20;;
38725;SDS011;24474;48.906;8.808;2023-03-23T01:38:55;1.55;;;1.00;;
38725;SDS011;24474;48.906;8.808;2023-03-23T01:41:24;2.25;;;1.17;;
38725;SDS011;24474;48.906;8.808;2023-03-23T01:44:06;1.80;;;1.00;;
38725;SDS011;24474;48.906;8.808;2023-03-23T01:46:54;2.15;;;1.17;;
38725;SDS011;24474;48.906;8.808;2023-03-23T01:49:35;3.50;;;1.20;;
38725;SDS011;24474;48.906;8.808;2023-03-23T01:52:10;1.27;;;1.00;;
38725;SDS011;24474;48.906;8.808;2023-03-23T01:54:43;1.73;;;1.00;;
38725;SDS011;24474;48.906;8.808;2023-03-23T01:57:21;1.77;;;1.10;;
38725;SDS011;24474;48.906;8.808;2023-03-23T01:59:53;1.85;;;1.02;;
38725;SDS011;24474;48.906;8.808;2023-03-23T02:02:21;2.85;;;1.10;;
38725;SDS011;24474;48.906;8.808;2023-03-23T02:04:50;2.10;;;1.02;;
38725;SDS011;24474;48.906;8.808;2023-03-23T02:07:21;2.70;;;1.20;;
38725;SDS011;24474;48.906;8.808;2023-03-23T02:09:49;3.65;;;1.20;;
38725;SDS011;24474;48.906;8.808;2023-03-23T02:12:17;2.67;;;1.20;;
38725;SDS011;24474;48.906;8.808;2023-03-23T02:14:43;2.30;;;1.20;;
38725;SDS011;24474;48.906;8.808;2023-03-23T02:26:19;1.45;;;0.93;;
38725;SDS011;24474;48.906;8.808;2023-03-23T02:35:08;3.65;;;1.20;;
38725;SDS011;24474;48.906;8.808;2023-03-23T02:37:50;2.70;;;1.20;;
38725;SDS011;24474;48.906;8.808;2023-03-23T02:40:25;1.63;;;1.10;;
38725;SDS011;24474;48.906;8.808;2023-03-23T02:43:16;1.93;;;1.17;;
38725;SDS011;24474;48.906;8.808;2023-03-23T02:45:46;2.05;;;1.23;;
38725;SDS011;24474;48.906;8.808;2023-03-23T02:48:14;1.40;;;0.98;;
38725;SDS011;24474;48.906;8.808;2023-03-23T02:50:49;2.28;;;0.93;;
38725;SDS011;24474;48.906;8.808;2023-03-23T02:53:20;3.15;;;1.40;;
38725;SDS011;24474;48.906;8.808;2023-03-23T02:55:49;9.88;;;1.35;;
38725;SDS011;24474;48.906;8.808;2023-03-23T02:58:19;2.65;;;1.10;;
38725;SDS011;24474;48.906;8.808;2023-03-23T03:00:45;2.42;;;1.15;;
38725;SDS011;24474;48.906;8.808;2023-03-23T03:03:16;3.10;;;1.27;;
38725;SDS011;24474;48.906;8.808;2023-03-23T03:08:57;2.75;;;1.15;;
38725;SDS011;24474;48.906;8.808;2023-03-23T03:11:31;1.92;;;1.08;;
38725;SDS011;24474;48.906;8.808;2023-03-23T03:14:13;1.63;;;1.20;;
38725;SDS011;24474;48.906;8.808;2023-03-23T03:20:03;3.55;;;1.27;;
38725;SDS011;24474;48.906;8.808;2023-03-23T03:22:34;2.10;;;1.20;;
38725;SDS011;24474;48.906;8.808;2023-03-23T03:25:04;2.65;;;1.33;;
38725;SDS011;24474;48.906;8.808;2023-03-23T03:27:32;1.20;;;0.95;;
38725;SDS011;24474;48.906;8.808;2023-03-23T03:29:59;1.83;;;1.20;;
38725;SDS011;24474;48.906;8.808;2023-03-23T03:35:28;2.78;;;1.27;;
38725;SDS011;24474;48.906;8.808;2023-03-23T03:37:56;2.33;;;1.27;;
38725;SDS011;24474;48.906;8.808;2023-03-23T03:40:29;2.53;;;1.20;;
38725;SDS011;24474;48.906;8.808;2023-03-23T03:42:56;2.33;;;1.30;;
38725;SDS011;24474;48.906;8.808;2023-03-23T03:45:22;2.15;;;1.13;;
38725;SDS011;24474;48.906;8.808;2023-03-23T03:47:49;1.45;;;1.17;;
38725;SDS011;24474;48.906;8.808;2023-03-23T03:50:16;2.25;;;1.30;;
38725;SDS011;24474;48.906;8.808;2023-03-23T03:52:44;1.40;;;1.05;;
38725;SDS011;24474;48.906;8.808;2023-03-23T03:55:10;2.65;;;1.13;;
38725;SDS011;24474;48.906;8.808;2023-03-23T03:57:36;2.25;;;1.13;;
38725;SDS011;24474;48.906;8.808;2023-03-23T04:00:03;2.78;;;1.20;;
38725;SDS011;24474;48.906;8.808;2023-03-23T04:02:44;2.53;;;1.23;;
38725;SDS011;24474;48.906;8.808;2023-03-23T04:05:17;1.67;;;1.17;;
38725;SDS011;24474;48.906;8.808;2023-03-23T04:07:45;2.58;;;1.10;;
38725;SDS011;24474;48.906;8.808;2023-03-23T04:10:14;3.33;;;1.23;;
38725;SDS011;24474;48.906;8.808;2023-03-23T04:12:40;2.92;;;1.40;;
38725;SDS011;24474;48.906;8.808;2023-03-23T04:15:06;1.70;;;1.10;;
38725;SDS011;24474;48.906;8.808;2023-03-23T04:17:34;3.10;;;1.25;;
38725;SDS011;24474;48.906;8.808;2023-03-23T04:20:02;1.48;;;1.10;;
38725;SDS011;24474;48.906;8.808;2023-03-23T04:22:39;2.22;;;1.23;;
38725;SDS011;24474;48.906;8.808;2023-03-23T04:25:10;2.90;;;1.10;;
38725;SDS011;24474;48.906;8.808;2023-03-23T04:27:38;2.25;;;1.20;;
38725;SDS011;24474;48.906;8.808;2023-03-23T04:30:10;1.60;;;1.17;;
38725;SDS011;24474;48.906;8.808;2023-03-23T04:32:39;3.17;;;1.33;;
38725;SDS011;24474;48.906;8.808;2023-03-23T04:35:12;1.90;;;1.20;;
38725;SDS011;24474;48.906;8.808;2023-03-23T04:37:40;2.35;;;1.20;;
38725;SDS011;24474;48.906;8.808;2023-03-23T04:40:08;2.97;;;1.33;;
38725;SDS011;24474;48.906;8.808;2023-03-23T04:42:42;2.05;;;1.10;;
38725;SDS011;24474;48.906;8.808;2023-03-23T04:45:11;1.60;;;1.05;;
38725;SDS011;24474;48.906;8.808;2023-03-23T04:47:41;2.78;;;1.48;;
38725;SDS011;24474;48.906;8.808;2023-03-23T04:50:15;1.85;;;1.10;;
38725;SDS011;24474;48.906;8.808;2023-03-23T04:52:43;2.45;;;1.20;;
38725;SDS011;24474;48.906;8.808;2023-03-23T04:55:10;1.98;;;1.33;;
38725;SDS011;24474;48.906;8.808;2023-03-23T04:57:38;5.95;;;3.63;;
38725;SDS011;24474;48.906;8.808;2023-03-23T05:00:05;4.65;;;1.80;;
38725;SDS011;24474;48.906;8.808;2023-03-23T05:02:38;1.67;;;1.00;;
38725;SDS011;24474;48.906;8.808;2023-03-23T05:05:09;2.53;;;1.02;;
38725;SDS011;24474;48.906;8.808;2023-03-23T05:07:38;1.92;;;1.02;;
38725;SDS011;24474;48.906;8.808;2023-03-23T05:10:05;3.05;;;1.23;;
38725;SDS011;24474;48.906;8.808;2023-03-23T05:12:36;2.38;;;1.13;;
38725;SDS011;24474;48.906;8.808;2023-03-23T05:15:04;4.35;;;1.15;;
38725;SDS011;24474;48.906;8.808;2023-03-23T05:17:32;2.70;;;1.20;;
38725;SDS011;24474;48.906;8.808;2023-03-23T05:20:00;2.15;;;1.10;;
38725;SDS011;24474;48.906;8.808;2023-03-23T05:22:30;1.88;;;1.50;;
38725;SDS011;24474;48.906;8.808;2023-03-23T05:25:02;3.72;;;1.80;;
38725;SDS011;24474;48.906;8.808;2023-03-23T05:27:30;3.67;;;1.10;;
38725;SDS011;24474;48.906;8.808;2023-03-23T05:29:59;2.08;;;1.17;;
38725;SDS011;24474;48.906;8.808;2023-03-23T05:32:27;1.48;;;1.02;;
38725;SDS011;24474;48.906;8.808;2023-03-23T05:34:55;1.70;;;1.00;;
38725;SDS011;24474;48.906;8.808;2023-03-23T05:37:25;1.48;;;1.00;;
38725;SDS011;24474;48.906;8.808;2023-03-23T05:39:57;1.90;;;1.20;;
38725;SDS011;24474;48.906;8.808;2023-03-23T05:42:30;2.30;;;1.35;;
38725;SDS011;24474;48.906;8.808;2023-03-23T05:44:59;2.08;;;1.17;;
38725;SDS011;24474;48.906;8.808;2023-03-23T05:47:27;1.58;;;1.20;;
38725;SDS011;24474;48.906;8.808;2023-03-23T05:49:54;3.30;;;1.10;;
38725;SDS011;24474;48.906;8.808;2023-03-23T05:52:20;2.25;;;1.23;;
38725;SDS011;24474;48.906;8.808;2023-03-23T05:54:46;1.65;;;0.98;;
38725;SDS011;24474;48.906;8.808;2023-03-23T05:57:13;2.42;;;1.20;;
38725;SDS011;24474;48.906;8.808;2023-03-23T05:59:43;4.88;;;1.30;;
38725;SDS011;24474;48.906;8.808;2023-03-23T06:02:11;1.83;;;1.17;;
38725;SDS011;24474;48.906;8.808;2023-03-23T06:04:40;3.33;;;1.20;;
38725;SDS011;24474;48.906;8.808;2023-03-23T06:07:07;2.03;;;1.10;;
38725;SDS011;24474;48.906;8.808;2023-03-23T06:09:41;2.20;;;1.23;;
38725;SDS011;24474;48.906;8.808;2023-03-23T06:12:08;3.05;;;1.20;;
38725;SDS011;24474;48.906;8.808;2023-03-23T06:14:37;2.10;;;1.40;;
38725;SDS011;24474;48.906;8.808;2023-03-23T06:17:04;1.95;;;1.10;;
38725;SDS011;24474;48.906;8.808;2023-03-23T06:19:33;3.45;;;1.50;;
38725;SDS011;24474;48.906;8.808;2023-03-23T06:22:00;4.85;;;1.27;;
38725;SDS011;24474;48.906;8.808;2023-03-23T06:24:28;2.20;;;1.35;;
38725;SDS011;24474;48.906;8.808;2023-03-23T06:26:54;4.10;;;1.15;;
38725;SDS011;24474;48.906;8.808;2023-03-23T06:29:20;1.67;;;1.23;;
38725;SDS011;24474;48.906;8.808;2023-03-23T06:31:47;2.10;;;1.20;;
38725;SDS011;24474;48.906;8.808;2023-03-23T06:34:16;2.60;;;1.20;;
38725;SDS011;24474;48.906;8.808;2023-03-23T06:36:41;2.67;;;1.38;;
38725;SDS011;24474;48.906;8.808;2023-03-23T06:39:10;3.90;;;1.25;;
38725;SDS011;24474;48.906;8.808;2023-03-23T06:41:37;2.13;;;1.38;;
38725;SDS011;24474;48.906;8.808;2023-03-23T06:44:03;3.67;;;1.48;;
38725;SDS011;24474;48.906;8.808;2023-03-23T06:46:28;2.30;;;1.30;;
38725;SDS011;24474;48.906;8.808;2023-03-23T06:48:54;1.77;;;1.30;;
38725;SDS011;24474;48.906;8.808;2023-03-23T06:51:20;1.55;;;1.20;;
38725;SDS011;24474;48.906;8.808;2023-03-23T06:53:46;2.33;;;1.40;;
38725;SDS011;24474;48.906;8.808;2023-03-23T06:56:12;2.88;;;1.55;;
38725;SDS011;24474;48.906;8.808;2023-03-23T06:58:38;2.30;;;1.33;;
38725;SDS011;24474;48.906;8.808;2023-03-23T07:01:06;3.35;;;1.70;;
38725;SDS011;24474;48.906;8.808;2023-03-23T07:03:33;5.55;;;2.28;;
38725;SDS011;24474;48.906;8.808;2023-03-23T07:05:59;6.15;;;4.00;;
38725;SDS011;24474;48.906;8.808;2023-03-23T07:08:24;8.80;;;6.22;;
38725;SDS011;24474;48.906;8.808;2023-03-23T07:10:52;16.15;;;8.68;;
38725;SDS011;24474;48.906;8.808;2023-03-23T07:13:19;8.60;;;4.35;;
38725;SDS011;24474;48.906;8.808;2023-03-23T07:15:45;5.55;;;2.25;;
38725;SDS011;24474;48.906;8.808;2023-03-23T07:18:11;4.18;;;1.90;;
38725;SDS011;24474;48.906;8.808;2023-03-23T07:20:37;3.80;;;1.92;;
38725;SDS011;24474;48.906;8.808;2023-03-23T07:23:02;3.00;;;1.55;;
38725;SDS011;24474;48.906;8.808;2023-03-23T07:25:32;2.85;;;1.40;;
38725;SDS011;24474;48.906;8.808;2023-03-23T07:27:59;3.15;;;1.75;;
38725;SDS011;24474;48.906;8.808;2023-03-23T07:30:26;3.75;;;1.70;;
38725;SDS011;24474;48.906;8.808;2023-03-23T07:32:54;2.35;;;1.70;;
38725;SDS011;24474;48.906;8.808;2023-03-23T07:35:20;2.50;;;1.58;;
38725;SDS011;24474;48.906;8.808;2023-03-23T07:37:46;3.40;;;1.50;;
38725;SDS011;24474;48.906;8.808;2023-03-23T07:40:14;2.78;;;1.67;;
38725;SDS011;24474;48.906;8.808;2023-03-23T07:43:02;3.85;;;1.50;;
38725;SDS011;24474;48.906;8.808;2023-03-23T07:45:27;2.95;;;1.50;;
38725;SDS011;24474;48.906;8.808;2023-03-23T07:47:53;2.30;;;1.45;;
38725;SDS011;24474;48.906;8.808;2023-03-23T07:50:19;3.22;;;1.70;;
38725;SDS011;24474;48.906;8.808;2023-03-23T07:52:49;2.35;;;1.40;;
38725;SDS011;24474;48.906;8.808;2023-03-23T07:55:16;3.63;;;1.70;;
38725;SDS011;24474;48.906;8.808;2023-03-23T07:57:46;3.03;;;1.70;;
38725;SDS011;24474;48.906;8.808;2023-03-23T08:00:13;2.10;;;1.65;;
38725;SDS011;24474;48.906;8.808;2023-03-23T08:02:47;4.00;;;1.75;;
38725;SDS011;24474;48.906;8.808;2023-03-23T08:05:14;3.10;;;1.70;;
38725;SDS011;24474;48.906;8.808;2023-03-23T08:07:40;2.25;;;1.60;;
38725;SDS011;24474;48.906;8.808;2023-03-23T08:10:08;3.40;;;1.83;;
38725;SDS011;24474;48.906;8.808;2023-03-23T08:12:35;3.05;;;1.67;;
38725;SDS011;24474;48.906;8.808;2023-03-23T08:15:01;2.40;;;1.60;;
38725;SDS011;24474;48.906;8.808;2023-03-23T08:17:28;2.55;;;1.65;;
38725;SDS011;24474;48.906;8.808;2023-03-23T08:19:53;2.92;;;1.80;;
38725;SDS011;24474;48.906;8.808;2023-03-23T08:22:19;2.83;;;1.60;;
38725;SDS011;24474;48.906;8.808;2023-03-23T08:24:46;5.03;;;1.90;;
38725;SDS011;24474;48.906;8.808;2023-03-23T08:27:12;3.45;;;1.40;;
38725;SDS011;24474;48.906;8.808;2023-03-23T08:29:37;4.93;;;2.00;;
38725;SDS011;24474;48.906;8.808;2023-03-23T08:32:03;2.67;;;1.60;;
38725;SDS011;24474;48.906;8.808;2023-03-23T08:34:30;2.33;;;1.98;;
38725;SDS011;24474;48.906;8.808;2023-03-23T08:36:56;3.65;;;1.52;;
38725;SDS011;24474;48.906;8.808;2023-03-23T08:39:21;2.78;;;1.60;;
38725;SDS011;24474;48.906;8.808;2023-03-23T08:41:48;5.45;;;2.90;;
38725;SDS011;24474;48.906;8.808;2023-03-23T08:44:14;4.75;;;1.60;;
38725;SDS011;24474;48.906;8.808;2023-03-23T08:46:40;3.60;;;1.52;;
38725;SDS011;24474;48.906;8.808;2023-03-23T08:49:06;2.15;;;1.40;;
38725;SDS011;24474;48.906;8.808;2023-03-23T08:51:32;2.47;;;1.55;;
38725;SDS011;24474;48.906;8.808;2023-03-23T08:53:58;1.70;;;1.30;;
38725;SDS011;24474;48.906;8.808;2023-03-23T08:56:24;2.10;;;1.48;;
38725;SDS011;24474;48.906;8.808;2023-03-23T08:58:50;2.03;;;1.48;;
38725;SDS011;24474;48.906;8.808;2023-03-23T09:01:16;2.85;;;1.33;;
38725;SDS011;24474;48.906;8.808;2023-03-23T09:03:41;1.88;;;1.38;;
38725;SDS011;24474;48.906;8.808;2023-03-23T09:06:08;2.08;;;1.10;;
38725;SDS011;24474;48.906;8.808;2023-03-23T09:08:37;2.38;;;1.27;;
38725;SDS011;24474;48.906;8.808;2023-03-23T09:11:03;1.10;;;1.00;;
38725;SDS011;24474;48.906;8.808;2023-03-23T09:13:32;2.05;;;1.27;;
38725;SDS011;24474;48.906;8.808;2023-03-23T09:15:58;2.83;;;1.30;;
38725;SDS011;24474;48.906;8.808;2023-03-23T09:18:24;1.83;;;1.08;;
38725;SDS011;24474;48.906;8.808;2023-03-23T09:20:50;2.70;;;1.30;;
38725;SDS011;24474;48.906;8.808;2023-03-23T09:23:16;2.63;;;1.33;;
38725;SDS011;24474;48.906;8.808;2023-03-23T09:25:42;5.47;;;2.10;;
38725;SDS011;24474;48.906;8.808;2023-03-23T09:28:08;2.55;;;1.23;;
38725;SDS011;24474;48.906;8.808;2023-03-23T09:30:36;3.10;;;1.27;;
38725;SDS011;24474;48.906;8.808;2023-03-23T09:35:39;4.30;;;1.35;;
38725;SDS011;24474;48.906;8.808;2023-03-23T09:38:07;2.28;;;1.20;;
38725;SDS011;24474;48.906;8.808;2023-03-23T09:41:04;2.03;;;1.13;;
38725;SDS011;24474;48.906;8.808;2023-03-23T09:44:01;1.67;;;1.20;;
38725;SDS011;24474;48.906;8.808;2023-03-23T09:49:01;1.60;;;1.17;;
38725;SDS011;24474;48.906;8.808;2023-03-23T09:51:37;2.65;;;1.15;;
38725;SDS011;24474;48.906;8.808;2023-03-23T09:56:57;2.65;;;1.30;;
38725;SDS011;24474;48.906;8.808;2023-03-23T09:59:36;2.90;;;1.20;;
38725;SDS011;24474;48.906;8.808;2023-03-23T10:02:11;2.40;;;1.10;;
38725;SDS011;24474;48.906;8.808;2023-03-23T10:04:50;2.72;;;1.20;;
38725;SDS011;24474;48.906;8.808;2023-03-23T10:07:21;4.47;;;1.38;;
38725;SDS011;24474;48.906;8.808;2023-03-23T10:09:51;1.55;;;1.20;;
38725;SDS011;24474;48.906;8.808;2023-03-23T10:12:27;2.03;;;1.23;;
38725;SDS011;24474;48.906;8.808;2023-03-23T10:15:17;1.35;;;1.10;;
38725;SDS011;24474;48.906;8.808;2023-03-23T10:17:54;8.15;;;1.70;;
38725;SDS011;24474;48.906;8.808;2023-03-23T10:25:58;2.37;;;1.10;;
38725;SDS011;24474;48.906;8.808;2023-03-23T10:28:46;2.80;;;1.00;;
38725;SDS011;24474;48.906;8.808;2023-03-23T10:31:38;1.88;;;1.40;;
38725;SDS011;24474;48.906;8.808;2023-03-23T10:34:20;3.00;;;1.35;;
38725;SDS011;24474;48.906;8.808;2023-03-23T10:37:24;2.75;;;1.42;;
38725;SDS011;24474;48.906;8.808;2023-03-23T10:39:57;2.58;;;1.20;;
38725;SDS011;24474;48.906;8.808;2023-03-23T10:42:29;2.70;;;1.30;;
38725;SDS011;24474;48.906;8.808;2023-03-23T10:47:52;3.90;;;1.23;;
38725;SDS011;24474;48.906;8.808;2023-03-23T10:50:41;2.65;;;1.40;;
38725;SDS011;24474;48.906;8.808;2023-03-23T10:53:21;1.13;;;1.00;;
38725;SDS011;24474;48.906;8.808;2023-03-23T10:56:20;3.25;;;1.20;;
38725;SDS011;24474;48.906;8.808;2023-03-23T10:58:50;2.25;;;1.30;;
38725;SDS011;24474;48.906;8.808;2023-03-23T11:01:36;4.20;;;1.52;;
38725;SDS011;24474;48.906;8.808;2023-03-23T11:04:02;3.35;;;1.50;;
38725;SDS011;24474;48.906;8.808;2023-03-23T11:06:30;2.15;;;1.38;;
38725;SDS011;24474;48.906;8.808;2023-03-23T11:09:13;2.30;;;1.17;;
38725;SDS011;24474;48.906;8.808;2023-03-23T11:11:43;3.40;;;1.40;;
38725;SDS011;24474;48.906;8.808;2023-03-23T11:16:59;3.28;;;2.05;;
38725;SDS011;24474;48.906;8.808;2023-03-23T11:24:36;2.50;;;1.42;;
38725;SDS011;24474;48.906;8.808;2023-03-23T11:27:06;3.92;;;1.48;;
38725;SDS011;24474;48.906;8.808;2023-03-23T11:29:34;2.10;;;1.42;;
38725;SDS011;24474;48.906;8.808;2023-03-23T11:32:03;3.22;;;1.50;;
38725;SDS011;24474;48.906;8.808;2023-03-23T11:40:03;2.15;;;1.40;;
38725;SDS011;24474;48.906;8.808;2023-03-23T11:45:19;3.83;;;1.60;;
38725;SDS011;24474;48.906;8.808;2023-03-23T11:51:08;1.98;;;1.40;;
38725;SDS011;24474;48.906;8.808;2023-03-23T11:53:55;3.10;;;1.50;;
38725;SDS011;24474;48.906;8.808;2023-03-23T11:56:34;3.08;;;1.63;;
38725;SDS011;24474;48.906;8.808;2023-03-23T11:59:25;5.35;;;1.90;;
38725;SDS011;24474;48.906;8.808;2023-03-23T12:30:16;5.40;;;2.10;;
38725;SDS011;24474;48.906;8.808;2023-03-23T12:38:22;2.95;;;1.60;;
38725;SDS011;24474;48.906;8.808;2023-03-23T12:43:48;3.42;;;1.92;;
38725;SDS011;24474;48.906;8.808;2023-03-23T12:47:03;2.72;;;1.75;;
38725;SDS011;24474;48.906;8.808;2023-03-23T12:54:59;2.30;;;1.70;;
38725;SDS011;24474;48.906;8.808;2023-03-23T13:02:58;2.92;;;2.03;;
38725;SDS011;24474;48.906;8.808;2023-03-23T13:05:47;3.33;;;2.00;;
38725;SDS011;24474;48.906;8.808;2023-03-23T13:11:21;4.35;;;2.05;;
38725;SDS011;24474;48.906;8.808;2023-03-23T13:26:20;3.95;;;1.98;;
38725;SDS011;24474;48.906;8.808;2023-03-23T13:31:50;3.33;;;2.00;;
38725;SDS011;24474;48.906;8.808;2023-03-23T13:36:52;4.75;;;2.17;;
38725;SDS011;24474;48.906;8.808;2023-03-23T13:39:26;5.05;;;2.30;;
38725;SDS011;24474;48.906;8.808;2023-03-23T13:44:55;3.13;;;1.58;;
38725;SDS011;24474;48.906;8.808;2023-03-23T13:47:38;3.40;;;2.05;;
38725;SDS011;24474;48.906;8.808;2023-03-23T13:50:23;4.80;;;1.92;;
38725;SDS011;24474;48.906;8.808;2023-03-23T13:53:00;3.28;;;2.00;;
38725;SDS011;24474;48.906;8.808;2023-03-23T13:55:48;4.20;;;2.55;;
38725;SDS011;24474;48.906;8.808;2023-03-23T13:58:25;3.65;;;2.20;;
38725;SDS011;24474;48.906;8.808;2023-03-23T14:03:43;3.45;;;2.13;;
38725;SDS011;24474;48.906;8.808;2023-03-23T14:06:16;4.30;;;3.00;;
38725;SDS011;24474;48.906;8.808;2023-03-23T14:08:50;4.47;;;2.50;;
38725;SDS011;24474;48.906;8.808;2023-03-23T14:11:23;3.78;;;2.13;;
38725;SDS011;24474;48.906;8.808;2023-03-23T14:14:12;3.78;;;2.30;;
38725;SDS011;24474;48.906;8.808;2023-03-23T14:16:48;4.20;;;1.90;;
38725;SDS011;24474;48.906;8.808;2023-03-23T14:21:50;3.80;;;1.98;;
38725;SDS011;24474;48.906;8.808;2023-03-23T14:24:28;3.83;;;1.88;;
38725;SDS011;24474;48.906;8.808;2023-03-23T14:27:18;4.05;;;1.88;;
38725;SDS011;24474;48.906;8.808;2023-03-23T14:29:46;5.65;;;1.98;;
38725;SDS011;24474;48.906;8.808;2023-03-23T14:32:30;7.72;;;1.88;;
38725;SDS011;24474;48.906;8.808;2023-03-23T14:34:57;3.17;;;1.90;;
38725;SDS011;24474;48.906;8.808;2023-03-23T14:37:24;3.45;;;1.80;;
38725;SDS011;24474;48.906;8.808;2023-03-23T14:39:52;3.97;;;2.00;;
38725;SDS011;24474;48.906;8.808;2023-03-23T14:42:27;4.03;;;1.80;;
38725;SDS011;24474;48.906;8.808;2023-03-23T14:45:03;5.20;;;2.17;;
38725;SDS011;24474;48.906;8.808;2023-03-23T14:47:37;5.13;;;2.10;;
38725;SDS011;24474;48.906;8.808;2023-03-23T14:50:21;2.50;;;1.65;;
38725;SDS011;24474;48.906;8.808;2023-03-23T14:52:47;3.70;;;2.00;;
38725;SDS011;24474;48.906;8.808;2023-03-23T14:55:18;5.40;;;2.13;;
38725;SDS011;24474;48.906;8.808;2023-03-23T14:57:46;3.33;;;1.85;;
38725;SDS011;24474;48.906;8.808;2023-03-23T15:02:40;2.83;;;1.83;;
38725;SDS011;24474;48.906;8.808;2023-03-23T15:05:11;3.92;;;2.03;;
38725;SDS011;24474;48.906;8.808;2023-03-23T15:07:42;6.18;;;2.15;;
38725;SDS011;24474;48.906;8.808;2023-03-23T15:10:14;4.47;;;2.08;;
38725;SDS011;24474;48.906;8.808;2023-03-23T15:12:45;3.85;;;1.90;;
38725;SDS011;24474;48.906;8.808;2023-03-23T15:15:24;4.47;;;2.05;;
38725;SDS011;24474;48.906;8.808;2023-03-23T15:17:52;3.88;;;2.03;;
38725;SDS011;24474;48.906;8.808;2023-03-23T15:20:23;3.88;;;2.00;;
38725;SDS011;24474;48.906;8.808;2023-03-23T15:22:51;5.03;;;2.00;;
38725;SDS011;24474;48.906;8.808;2023-03-23T15:25:19;4.10;;;2.38;;
38725;SDS011;24474;48.906;8.808;2023-03-23T15:27:55;6.85;;;2.13;;
38725;SDS011;24474;48.906;8.808;2023-03-23T15:32:51;6.72;;;2.00;;
38725;SDS011;24474;48.906;8.808;2023-03-23T15:35:22;3.90;;;1.80;;
38725;SDS011;24474;48.906;8.808;2023-03-23T15:37:56;4.32;;;2.03;;
38725;SDS011;24474;48.906;8.808;2023-03-23T15:40:24;3.65;;;2.13;;
38725;SDS011;24474;48.906;8.808;2023-03-23T15:45:51;3.30;;;1.80;;
38725;SDS011;24474;48.906;8.808;2023-03-23T15:48:17;5.38;;;2.10;;
38725;SDS011;24474;48.906;8.808;2023-03-23T15:50:42;3.17;;;1.80;;
38725;SDS011;24474;48.906;8.808;2023-03-23T15:53:18;4.22;;;2.13;;
38725;SDS011;24474;48.906;8.808;2023-03-23T15:55:59;3.88;;;2.25;;
38725;SDS011;24474;48.906;8.808;2023-03-23T15:58:30;4.05;;;2.22;;
38725;SDS011;24474;48.906;8.808;2023-03-23T16:00:57;3.30;;;1.80;;
38725;SDS011;24474;48.906;8.808;2023-03-23T16:03:25;4.90;;;2.10;;
38725;SDS011;24474;48.906;8.808;2023-03-23T16:05:54;4.20;;;2.08;;
38725;SDS011;24474;48.906;8.808;2023-03-23T16:08:21;5.18;;;2.03;;
38725;SDS011;24474;48.906;8.808;2023-03-23T16:10:48;2.53;;;1.85;;
38725;SDS011;24474;48.906;8.808;2023-03-23T16:13:17;4.75;;;2.17;;
38725;SDS011;24474;48.906;8.808;2023-03-23T16:15:43;5.30;;;2.20;;
38725;SDS011;24474;48.906;8.808;2023-03-23T16:18:21;4.80;;;2.30;;
38725;SDS011;24474;48.906;8.808;2023-03-23T16:20:50;5.57;;;2.67;;
38725;SDS011;24474;48.906;8.808;2023-03-23T16:23:17;7.97;;;2.60;;
38725;SDS011;24474;48.906;8.808;2023-03-23T16:25:46;5.25;;;2.60;;
38725;SDS011;24474;48.906;8.808;2023-03-23T16:28:15;4.35;;;2.50;;
38725;SDS011;24474;48.906;8.808;2023-03-23T16:30:43;7.05;;;2.50;;
38725;SDS011;24474;48.906;8.808;2023-03-23T16:33:10;4.63;;;2.30;;
38725;SDS011;24474;48.906;8.808;2023-03-23T16:35:38;6.63;;;2.50;;
38725;SDS011;24474;48.906;8.808;2023-03-23T16:38:05;4.60;;;2.60;;
38725;SDS011;24474;48.906;8.808;2023-03-23T16:40:32;4.05;;;2.42;;
38725;SDS011;24474;48.906;8.808;2023-03-23T16:42:59;4.95;;;2.83;;
38725;SDS011;24474;48.906;8.808;2023-03-23T16:45:27;4.88;;;2.55;;
38725;SDS011;24474;48.906;8.808;2023-03-23T16:47:54;5.28;;;2.70;;
38725;SDS011;24474;48.906;8.808;2023-03-23T16:52:52;7.88;;;4.10;;
38725;SDS011;24474;48.906;8.808;2023-03-23T16:55:17;7.13;;;3.50;;
38725;SDS011;24474;48.906;8.808;2023-03-23T16:57:45;6.13;;;3.60;;
38725;SDS011;24474;48.906;8.808;2023-03-23T17:00:15;7.68;;;3.60;;
38725;SDS011;24474;48.906;8.808;2023-03-23T17:02:44;6.28;;;3.50;;
38725;SDS011;24474;48.906;8.808;2023-03-23T17:05:11;5.97;;;3.88;;
38725;SDS011;24474;48.906;8.808;2023-03-23T17:07:37;8.10;;;5.95;;
38725;SDS011;24474;48.906;8.808;2023-03-23T17:10:03;15.43;;;10.50;;
38725;SDS011;24474;48.906;8.808;2023-03-23T17:12:30;14.77;;;10.02;;
38725;SDS011;24474;48.906;8.808;2023-03-23T17:14:56;16.33;;;9.88;;
38725;SDS011;24474;48.906;8.808;2023-03-23T17:17:22;10.65;;;7.10;;
38725;SDS011;24474;48.906;8.808;2023-03-23T17:19:48;7.40;;;4.15;;
38725;SDS011;24474;48.906;8.808;2023-03-23T17:22:14;5.72;;;3.42;;
38725;SDS011;24474;48.906;8.808;2023-03-23T17:24:40;6.43;;;3.95;;
38725;SDS011;24474;48.906;8.808;2023-03-23T17:27:06;7.22;;;3.83;;
38725;SDS011;24474;48.906;8.808;2023-03-23T17:29:32;8.35;;;4.32;;
38725;SDS011;24474;48.906;8.808;2023-03-23T17:31:57;6.55;;;4.22;;
38725;SDS011;24474;48.906;8.808;2023-03-23T17:34:23;10.18;;;4.22;;
38725;SDS011;24474;48.906;8.808;2023-03-23T17:36:49;6.30;;;3.72;;